sensor_id;sensor_type;location;lat;lon;timestamp;P1;durP1;ratioP1;P2;durP2;ratioP2
12962;SDS011;6546;49.882;8.666;2023-02-23T00:01:08;33.70;;;26.60;;
12962;SDS011;6546;49.882;8.666;2023-02-23T00:03:37;37.00;;;26.80;;
12962;SDS011;6546;49.882;8.666;2023-02-23T00:06:06;36.93;;;27.43;;
12962;SDS011;6546;49.882;8.666;2023-02-23T00:08:34;36.70;;;26.23;;
12962;SDS011;6546;49.882;8.666;2023-02-23T00:11:02;36.07;;;26.20;;
12962;SDS011;6546;49.882;8.666;2023-02-23T00:13:30;33.30;;;26.53;;
12962;SDS011;6546;49.882;8.666;2023-02-23T00:16:03;34.43;;;26.77;;
12962;SDS011;6546;49.882;8.666;2023-02-23T00:18:31;40.33;;;28.23;;
12962;SDS011;6546;49.882;8.666;2023-02-23T00:21:11;34.57;;;26.70;;
12962;SDS011;6546;49.882;8.666;2023-02-23T00:23:40;35.23;;;27.03;;
12962;SDS011;6546;49.882;8.666;2023-02-23T00:26:13;35.67;;;26.73;;
12962;SDS011;6546;49.882;8.666;2023-02-23T00:28:41;36.07;;;27.50;;
12962;SDS011;6546;49.882;8.666;2023-02-23T00:31:08;36.37;;;27.60;;
12962;SDS011;6546;49.882;8.666;2023-02-23T00:33:36;33.67;;;26.23;;
12962;SDS011;6546;49.882;8.666;2023-02-23T00:36:12;33.40;;;26.70;;
12962;SDS011;6546;49.882;8.666;2023-02-23T00:38:40;33.30;;;26.07;;
12962;SDS011;6546;49.882;8.666;2023-02-23T00:41:07;32.17;;;25.37;;
12962;SDS011;6546;49.882;8.666;2023-02-23T00:43:41;36.47;;;26.20;;
12962;SDS011;6546;49.882;8.666;2023-02-23T00:46:12;33.20;;;26.60;;
12962;SDS011;6546;49.882;8.666;2023-02-23T00:48:41;35.53;;;26.93;;
12962;SDS011;6546;49.882;8.666;2023-02-23T00:51:14;34.63;;;26.70;;
12962;SDS011;6546;49.882;8.666;2023-02-23T00:53:43;34.57;;;26.67;;
12962;SDS011;6546;49.882;8.666;2023-02-23T00:56:11;33.70;;;26.03;;
12962;SDS011;6546;49.882;8.666;2023-02-23T00:58:39;36.70;;;27.37;;
12962;SDS011;6546;49.882;8.666;2023-02-23T01:01:09;31.53;;;25.07;;
12962;SDS011;6546;49.882;8.666;2023-02-23T01:03:38;39.07;;;27.40;;
12962;SDS011;6546;49.882;8.666;2023-02-23T01:06:07;34.00;;;26.70;;
12962;SDS011;6546;49.882;8.666;2023-02-23T01:08:39;33.67;;;27.07;;
12962;SDS011;6546;49.882;8.666;2023-02-23T01:11:08;34.57;;;27.90;;
12962;SDS011;6546;49.882;8.666;2023-02-23T01:13:36;37.83;;;26.73;;
12962;SDS011;6546;49.882;8.666;2023-02-23T01:16:04;36.13;;;27.40;;
12962;SDS011;6546;49.882;8.666;2023-02-23T01:18:33;36.53;;;27.80;;
12962;SDS011;6546;49.882;8.666;2023-02-23T01:21:00;37.23;;;28.17;;
12962;SDS011;6546;49.882;8.666;2023-02-23T01:23:29;33.47;;;26.83;;
12962;SDS011;6546;49.882;8.666;2023-02-23T01:25:58;42.37;;;29.33;;
12962;SDS011;6546;49.882;8.666;2023-02-23T01:28:26;33.90;;;27.57;;
12962;SDS011;6546;49.882;8.666;2023-02-23T01:30:53;37.40;;;27.80;;
12962;SDS011;6546;49.882;8.666;2023-02-23T01:33:20;40.27;;;30.77;;
12962;SDS011;6546;49.882;8.666;2023-02-23T01:35:55;36.30;;;28.70;;
12962;SDS011;6546;49.882;8.666;2023-02-23T01:38:23;35.50;;;27.10;;
12962;SDS011;6546;49.882;8.666;2023-02-23T01:40:50;37.43;;;28.73;;
12962;SDS011;6546;49.882;8.666;2023-02-23T01:43:20;39.87;;;29.67;;
12962;SDS011;6546;49.882;8.666;2023-02-23T01:45:50;37.23;;;28.03;;
12962;SDS011;6546;49.882;8.666;2023-02-23T01:48:20;37.27;;;28.63;;
12962;SDS011;6546;49.882;8.666;2023-02-23T01:50:52;39.43;;;29.23;;
12962;SDS011;6546;49.882;8.666;2023-02-23T01:53:21;37.30;;;28.97;;
12962;SDS011;6546;49.882;8.666;2023-02-23T01:55:51;37.47;;;28.47;;
12962;SDS011;6546;49.882;8.666;2023-02-23T01:58:23;34.83;;;28.27;;
12962;SDS011;6546;49.882;8.666;2023-02-23T02:00:54;37.43;;;28.27;;
12962;SDS011;6546;49.882;8.666;2023-02-23T02:03:27;34.20;;;27.03;;
12962;SDS011;6546;49.882;8.666;2023-02-23T02:05:58;34.20;;;26.37;;
12962;SDS011;6546;49.882;8.666;2023-02-23T02:08:27;37.47;;;28.30;;
12962;SDS011;6546;49.882;8.666;2023-02-23T02:10:57;33.07;;;27.03;;
12962;SDS011;6546;49.882;8.666;2023-02-23T02:13:26;39.47;;;28.03;;
12962;SDS011;6546;49.882;8.666;2023-02-23T02:16:05;34.57;;;27.57;;
12962;SDS011;6546;49.882;8.666;2023-02-23T02:19:07;37.60;;;27.67;;
12962;SDS011;6546;49.882;8.666;2023-02-23T02:22:12;38.07;;;26.60;;
12962;SDS011;6546;49.882;8.666;2023-02-23T02:31:11;34.37;;;26.90;;
12962;SDS011;6546;49.882;8.666;2023-02-23T02:34:24;35.93;;;26.03;;
12962;SDS011;6546;49.882;8.666;2023-02-23T02:40:25;32.07;;;24.93;;
12962;SDS011;6546;49.882;8.666;2023-02-23T02:42:58;33.73;;;25.83;;
12962;SDS011;6546;49.882;8.666;2023-02-23T02:45:36;34.03;;;26.13;;
12962;SDS011;6546;49.882;8.666;2023-02-23T02:48:17;35.87;;;27.30;;
12962;SDS011;6546;49.882;8.666;2023-02-23T02:50:52;31.80;;;25.87;;
12962;SDS011;6546;49.882;8.666;2023-02-23T02:53:25;33.83;;;25.30;;
12962;SDS011;6546;49.882;8.666;2023-02-23T02:55:56;36.67;;;27.43;;
12962;SDS011;6546;49.882;8.666;2023-02-23T02:58:25;35.53;;;25.57;;
12962;SDS011;6546;49.882;8.666;2023-02-23T03:00:54;32.83;;;26.30;;
12962;SDS011;6546;49.882;8.666;2023-02-23T03:03:40;35.43;;;26.93;;
12962;SDS011;6546;49.882;8.666;2023-02-23T03:06:28;39.03;;;28.03;;
12962;SDS011;6546;49.882;8.666;2023-02-23T03:09:24;33.87;;;26.87;;
12962;SDS011;6546;49.882;8.666;2023-02-23T03:12:20;33.80;;;26.30;;
12962;SDS011;6546;49.882;8.666;2023-02-23T03:15:16;31.03;;;24.13;;
12962;SDS011;6546;49.882;8.666;2023-02-23T03:18:15;35.90;;;26.30;;
12962;SDS011;6546;49.882;8.666;2023-02-23T03:21:14;35.17;;;26.73;;
12962;SDS011;6546;49.882;8.666;2023-02-23T03:24:06;33.43;;;26.93;;
12962;SDS011;6546;49.882;8.666;2023-02-23T03:27:02;33.67;;;26.67;;
12962;SDS011;6546;49.882;8.666;2023-02-23T03:29:51;34.03;;;26.50;;
12962;SDS011;6546;49.882;8.666;2023-02-23T03:32:43;37.33;;;26.67;;
12962;SDS011;6546;49.882;8.666;2023-02-23T03:35:33;35.27;;;27.27;;
12962;SDS011;6546;49.882;8.666;2023-02-23T03:38:24;36.30;;;27.43;;
12962;SDS011;6546;49.882;8.666;2023-02-23T03:41:15;33.10;;;25.87;;
12962;SDS011;6546;49.882;8.666;2023-02-23T03:44:04;35.97;;;27.10;;
12962;SDS011;6546;49.882;8.666;2023-02-23T03:46:54;32.53;;;26.17;;
12962;SDS011;6546;49.882;8.666;2023-02-23T03:49:42;35.40;;;26.30;;
12962;SDS011;6546;49.882;8.666;2023-02-23T03:52:28;32.50;;;25.77;;
12962;SDS011;6546;49.882;8.666;2023-02-23T03:55:20;34.50;;;26.20;;
12962;SDS011;6546;49.882;8.666;2023-02-23T03:58:10;34.77;;;25.40;;
12962;SDS011;6546;49.882;8.666;2023-02-23T04:01:00;34.13;;;25.63;;
12962;SDS011;6546;49.882;8.666;2023-02-23T04:03:46;33.43;;;24.53;;
12962;SDS011;6546;49.882;8.666;2023-02-23T04:06:34;36.30;;;25.83;;
12962;SDS011;6546;49.882;8.666;2023-02-23T04:09:21;37.23;;;26.83;;
12962;SDS011;6546;49.882;8.666;2023-02-23T04:12:06;38.07;;;28.27;;
12962;SDS011;6546;49.882;8.666;2023-02-23T04:14:55;39.17;;;29.77;;
12962;SDS011;6546;49.882;8.666;2023-02-23T04:17:27;41.90;;;30.30;;
12962;SDS011;6546;49.882;8.666;2023-02-23T04:19:55;41.20;;;31.37;;
12962;SDS011;6546;49.882;8.666;2023-02-23T04:22:22;39.70;;;31.50;;
12962;SDS011;6546;49.882;8.666;2023-02-23T04:24:50;41.60;;;31.60;;
12962;SDS011;6546;49.882;8.666;2023-02-23T04:27:17;45.53;;;33.30;;
12962;SDS011;6546;49.882;8.666;2023-02-23T04:29:45;43.63;;;33.00;;
12962;SDS011;6546;49.882;8.666;2023-02-23T04:32:14;49.33;;;33.20;;
12962;SDS011;6546;49.882;8.666;2023-02-23T04:34:46;43.80;;;33.03;;
12962;SDS011;6546;49.882;8.666;2023-02-23T04:37:13;43.43;;;33.43;;
12962;SDS011;6546;49.882;8.666;2023-02-23T04:39:41;43.97;;;33.37;;
12962;SDS011;6546;49.882;8.666;2023-02-23T04:42:12;49.27;;;35.67;;
12962;SDS011;6546;49.882;8.666;2023-02-23T04:44:40;47.73;;;34.20;;
12962;SDS011;6546;49.882;8.666;2023-02-23T04:47:07;42.20;;;33.07;;
12962;SDS011;6546;49.882;8.666;2023-02-23T04:49:34;46.90;;;33.00;;
12962;SDS011;6546;49.882;8.666;2023-02-23T04:52:03;47.93;;;33.53;;
12962;SDS011;6546;49.882;8.666;2023-02-23T04:54:30;47.27;;;32.63;;
12962;SDS011;6546;49.882;8.666;2023-02-23T04:56:58;42.90;;;33.63;;
12962;SDS011;6546;49.882;8.666;2023-02-23T04:59:25;42.90;;;32.50;;
12962;SDS011;6546;49.882;8.666;2023-02-23T05:01:52;44.65;;;38.17;;
12962;SDS011;6546;49.882;8.666;2023-02-23T05:04:20;44.60;;;33.20;;
12962;SDS011;6546;49.882;8.666;2023-02-23T05:06:47;43.93;;;33.20;;
12962;SDS011;6546;49.882;8.666;2023-02-23T05:09:15;43.57;;;33.30;;
12962;SDS011;6546;49.882;8.666;2023-02-23T05:11:42;47.07;;;32.70;;
12962;SDS011;6546;49.882;8.666;2023-02-23T05:14:10;44.93;;;32.20;;
12962;SDS011;6546;49.882;8.666;2023-02-23T05:16:38;42.80;;;32.83;;
12962;SDS011;6546;49.882;8.666;2023-02-23T05:19:05;45.93;;;33.67;;
12962;SDS011;6546;49.882;8.666;2023-02-23T05:21:32;46.97;;;32.73;;
12962;SDS011;6546;49.882;8.666;2023-02-23T05:23:59;43.20;;;30.70;;
12962;SDS011;6546;49.882;8.666;2023-02-23T05:26:28;41.10;;;31.83;;
12962;SDS011;6546;49.882;8.666;2023-02-23T05:28:55;41.50;;;31.43;;
12962;SDS011;6546;49.882;8.666;2023-02-23T05:31:24;41.33;;;30.53;;
12962;SDS011;6546;49.882;8.666;2023-02-23T05:33:51;40.53;;;30.60;;
12962;SDS011;6546;49.882;8.666;2023-02-23T05:36:19;40.60;;;31.27;;
12962;SDS011;6546;49.882;8.666;2023-02-23T05:38:46;43.63;;;31.13;;
12962;SDS011;6546;49.882;8.666;2023-02-23T05:41:15;47.03;;;32.93;;
12962;SDS011;6546;49.882;8.666;2023-02-23T05:43:44;45.00;;;32.73;;
12962;SDS011;6546;49.882;8.666;2023-02-23T05:46:12;47.37;;;33.80;;
12962;SDS011;6546;49.882;8.666;2023-02-23T05:48:41;42.97;;;31.57;;
12962;SDS011;6546;49.882;8.666;2023-02-23T05:51:09;41.53;;;32.57;;
12962;SDS011;6546;49.882;8.666;2023-02-23T05:53:38;47.17;;;34.03;;
12962;SDS011;6546;49.882;8.666;2023-02-23T05:56:07;47.33;;;34.83;;
12962;SDS011;6546;49.882;8.666;2023-02-23T05:58:38;46.27;;;33.90;;
12962;SDS011;6546;49.882;8.666;2023-02-23T06:01:07;45.47;;;32.57;;
12962;SDS011;6546;49.882;8.666;2023-02-23T06:03:35;48.60;;;33.83;;
12962;SDS011;6546;49.882;8.666;2023-02-23T06:06:03;47.87;;;33.63;;
12962;SDS011;6546;49.882;8.666;2023-02-23T06:08:31;42.83;;;33.53;;
12962;SDS011;6546;49.882;8.666;2023-02-23T06:10:58;44.20;;;33.97;;
12962;SDS011;6546;49.882;8.666;2023-02-23T06:13:25;48.87;;;36.07;;
12962;SDS011;6546;49.882;8.666;2023-02-23T06:15:53;49.50;;;35.43;;
12962;SDS011;6546;49.882;8.666;2023-02-23T06:18:21;46.80;;;35.07;;
12962;SDS011;6546;49.882;8.666;2023-02-23T06:20:48;71.87;;;49.87;;
12962;SDS011;6546;49.882;8.666;2023-02-23T06:23:15;49.27;;;36.63;;
12962;SDS011;6546;49.882;8.666;2023-02-23T06:25:42;50.83;;;37.93;;
12962;SDS011;6546;49.882;8.666;2023-02-23T06:28:09;50.77;;;35.93;;
12962;SDS011;6546;49.882;8.666;2023-02-23T06:30:37;56.97;;;38.00;;
12962;SDS011;6546;49.882;8.666;2023-02-23T06:33:05;50.73;;;36.37;;
12962;SDS011;6546;49.882;8.666;2023-02-23T06:35:34;51.83;;;36.83;;
12962;SDS011;6546;49.882;8.666;2023-02-23T06:38:01;55.70;;;37.83;;
12962;SDS011;6546;49.882;8.666;2023-02-23T06:40:28;53.03;;;37.50;;
12962;SDS011;6546;49.882;8.666;2023-02-23T06:42:56;54.00;;;39.40;;
12962;SDS011;6546;49.882;8.666;2023-02-23T06:45:25;50.43;;;36.07;;
12962;SDS011;6546;49.882;8.666;2023-02-23T06:47:52;63.90;;;40.80;;
12962;SDS011;6546;49.882;8.666;2023-02-23T06:50:19;58.03;;;40.47;;
12962;SDS011;6546;49.882;8.666;2023-02-23T06:52:48;64.57;;;42.77;;
12962;SDS011;6546;49.882;8.666;2023-02-23T06:55:15;65.40;;;43.30;;
12962;SDS011;6546;49.882;8.666;2023-02-23T06:57:44;67.17;;;45.90;;
12962;SDS011;6546;49.882;8.666;2023-02-23T07:00:14;67.03;;;44.50;;
12962;SDS011;6546;49.882;8.666;2023-02-23T07:02:41;66.33;;;44.97;;
12962;SDS011;6546;49.882;8.666;2023-02-23T07:05:09;70.93;;;46.43;;
12962;SDS011;6546;49.882;8.666;2023-02-23T07:07:36;72.50;;;49.73;;
12962;SDS011;6546;49.882;8.666;2023-02-23T07:10:05;63.67;;;45.20;;
12962;SDS011;6546;49.882;8.666;2023-02-23T07:12:33;70.93;;;44.97;;
12962;SDS011;6546;49.882;8.666;2023-02-23T07:15:00;64.80;;;44.90;;
12962;SDS011;6546;49.882;8.666;2023-02-23T07:17:27;61.20;;;42.60;;
12962;SDS011;6546;49.882;8.666;2023-02-23T07:19:55;67.83;;;45.10;;
12962;SDS011;6546;49.882;8.666;2023-02-23T07:22:22;66.63;;;45.87;;
12962;SDS011;6546;49.882;8.666;2023-02-23T07:24:53;66.87;;;44.47;;
12962;SDS011;6546;49.882;8.666;2023-02-23T07:27:22;67.30;;;44.30;;
12962;SDS011;6546;49.882;8.666;2023-02-23T07:29:49;65.13;;;44.10;;
12962;SDS011;6546;49.882;8.666;2023-02-23T07:32:15;63.57;;;42.70;;
12962;SDS011;6546;49.882;8.666;2023-02-23T07:34:42;60.03;;;42.47;;
12962;SDS011;6546;49.882;8.666;2023-02-23T07:37:10;64.33;;;43.23;;
12962;SDS011;6546;49.882;8.666;2023-02-23T07:39:36;64.30;;;42.33;;
12962;SDS011;6546;49.882;8.666;2023-02-23T07:42:04;65.67;;;44.20;;
12962;SDS011;6546;49.882;8.666;2023-02-23T07:44:32;62.17;;;45.10;;
12962;SDS011;6546;49.882;8.666;2023-02-23T07:46:59;62.37;;;43.47;;
12962;SDS011;6546;49.882;8.666;2023-02-23T07:49:26;63.43;;;43.33;;
12962;SDS011;6546;49.882;8.666;2023-02-23T07:51:54;59.30;;;41.00;;
12962;SDS011;6546;49.882;8.666;2023-02-23T07:54:21;66.70;;;43.57;;
12962;SDS011;6546;49.882;8.666;2023-02-23T07:56:49;55.10;;;40.43;;
12962;SDS011;6546;49.882;8.666;2023-02-23T07:59:17;61.70;;;41.83;;
12962;SDS011;6546;49.882;8.666;2023-02-23T08:01:48;56.03;;;38.30;;
12962;SDS011;6546;49.882;8.666;2023-02-23T08:04:15;61.13;;;41.07;;
12962;SDS011;6546;49.882;8.666;2023-02-23T08:06:42;52.83;;;37.43;;
12962;SDS011;6546;49.882;8.666;2023-02-23T08:09:10;52.70;;;37.83;;
12962;SDS011;6546;49.882;8.666;2023-02-23T08:11:38;54.10;;;37.40;;
12962;SDS011;6546;49.882;8.666;2023-02-23T08:14:05;53.13;;;39.17;;
12962;SDS011;6546;49.882;8.666;2023-02-23T08:16:35;50.70;;;36.87;;
12962;SDS011;6546;49.882;8.666;2023-02-23T08:19:03;47.67;;;34.97;;
12962;SDS011;6546;49.882;8.666;2023-02-23T08:21:30;47.83;;;33.73;;
12962;SDS011;6546;49.882;8.666;2023-02-23T08:23:57;47.83;;;33.17;;
12962;SDS011;6546;49.882;8.666;2023-02-23T08:26:25;49.70;;;35.20;;
12962;SDS011;6546;49.882;8.666;2023-02-23T08:28:53;46.00;;;34.03;;
12962;SDS011;6546;49.882;8.666;2023-02-23T08:31:20;44.10;;;32.17;;
12962;SDS011;6546;49.882;8.666;2023-02-23T08:33:47;45.07;;;33.03;;
12962;SDS011;6546;49.882;8.666;2023-02-23T08:36:18;43.93;;;33.17;;
12962;SDS011;6546;49.882;8.666;2023-02-23T08:38:45;42.40;;;31.90;;
12962;SDS011;6546;49.882;8.666;2023-02-23T08:41:13;41.50;;;30.30;;
12962;SDS011;6546;49.882;8.666;2023-02-23T08:43:40;43.60;;;33.43;;
12962;SDS011;6546;49.882;8.666;2023-02-23T08:46:07;43.80;;;30.87;;
12962;SDS011;6546;49.882;8.666;2023-02-23T08:48:35;44.67;;;32.13;;
12962;SDS011;6546;49.882;8.666;2023-02-23T08:51:03;39.70;;;30.33;;
12962;SDS011;6546;49.882;8.666;2023-02-23T08:53:32;42.37;;;32.33;;
12962;SDS011;6546;49.882;8.666;2023-02-23T08:56:01;40.13;;;30.77;;
12962;SDS011;6546;49.882;8.666;2023-02-23T08:58:31;44.57;;;32.70;;
12962;SDS011;6546;49.882;8.666;2023-02-23T09:00:59;44.10;;;31.60;;
12962;SDS011;6546;49.882;8.666;2023-02-23T09:03:26;41.30;;;30.40;;
12962;SDS011;6546;49.882;8.666;2023-02-23T09:05:55;40.77;;;30.67;;
12962;SDS011;6546;49.882;8.666;2023-02-23T09:08:23;43.17;;;30.97;;
12962;SDS011;6546;49.882;8.666;2023-02-23T09:10:51;40.90;;;30.47;;
12962;SDS011;6546;49.882;8.666;2023-02-23T09:13:19;43.57;;;31.23;;
12962;SDS011;6546;49.882;8.666;2023-02-23T09:15:46;41.00;;;30.57;;
12962;SDS011;6546;49.882;8.666;2023-02-23T09:18:13;41.83;;;31.80;;
12962;SDS011;6546;49.882;8.666;2023-02-23T09:20:41;46.60;;;30.77;;
12962;SDS011;6546;49.882;8.666;2023-02-23T09:23:09;37.37;;;28.90;;
12962;SDS011;6546;49.882;8.666;2023-02-23T09:25:39;40.90;;;29.97;;
12962;SDS011;6546;49.882;8.666;2023-02-23T09:28:11;38.73;;;29.33;;
12962;SDS011;6546;49.882;8.666;2023-02-23T09:30:39;36.40;;;27.60;;
12962;SDS011;6546;49.882;8.666;2023-02-23T09:33:07;37.40;;;26.97;;
12962;SDS011;6546;49.882;8.666;2023-02-23T09:35:35;39.17;;;27.73;;
12962;SDS011;6546;49.882;8.666;2023-02-23T09:38:04;39.10;;;28.20;;
12962;SDS011;6546;49.882;8.666;2023-02-23T09:40:34;39.43;;;27.80;;
12962;SDS011;6546;49.882;8.666;2023-02-23T09:43:11;34.93;;;26.40;;
12962;SDS011;6546;49.882;8.666;2023-02-23T09:45:41;36.50;;;27.67;;
12962;SDS011;6546;49.882;8.666;2023-02-23T09:48:14;35.97;;;26.73;;
12962;SDS011;6546;49.882;8.666;2023-02-23T09:50:45;37.37;;;28.17;;
12962;SDS011;6546;49.882;8.666;2023-02-23T09:53:20;35.37;;;26.73;;
12962;SDS011;6546;49.882;8.666;2023-02-23T09:55:54;63.13;;;31.53;;
12962;SDS011;6546;49.882;8.666;2023-02-23T09:58:25;84.00;;;32.73;;
12962;SDS011;6546;49.882;8.666;2023-02-23T10:01:03;50.70;;;28.43;;
12962;SDS011;6546;49.882;8.666;2023-02-23T10:04:06;38.47;;;26.93;;
12962;SDS011;6546;49.882;8.666;2023-02-23T10:06:37;34.80;;;25.93;;
12962;SDS011;6546;49.882;8.666;2023-02-23T10:09:11;55.07;;;29.07;;
12962;SDS011;6546;49.882;8.666;2023-02-23T10:11:45;69.13;;;30.60;;
12962;SDS011;6546;49.882;8.666;2023-02-23T10:14:32;36.73;;;26.20;;
12962;SDS011;6546;49.882;8.666;2023-02-23T10:17:15;36.30;;;25.83;;
12962;SDS011;6546;49.882;8.666;2023-02-23T10:19:55;35.07;;;24.50;;
12962;SDS011;6546;49.882;8.666;2023-02-23T10:22:30;33.37;;;24.40;;
12962;SDS011;6546;49.882;8.666;2023-02-23T10:25:01;34.77;;;23.40;;
12962;SDS011;6546;49.882;8.666;2023-02-23T10:27:35;36.83;;;23.40;;
12962;SDS011;6546;49.882;8.666;2023-02-23T10:30:13;54.47;;;25.77;;
12962;SDS011;6546;49.882;8.666;2023-02-23T10:32:46;50.77;;;26.47;;
12962;SDS011;6546;49.882;8.666;2023-02-23T10:35:18;85.37;;;31.33;;
12962;SDS011;6546;49.882;8.666;2023-02-23T10:37:47;114.17;;;34.33;;
12962;SDS011;6546;49.882;8.666;2023-02-23T10:40:16;63.97;;;27.83;;
12962;SDS011;6546;49.882;8.666;2023-02-23T10:42:45;65.23;;;27.37;;
12962;SDS011;6546;49.882;8.666;2023-02-23T10:45:17;50.67;;;24.90;;
12962;SDS011;6546;49.882;8.666;2023-02-23T10:47:51;49.87;;;23.33;;
12962;SDS011;6546;49.882;8.666;2023-02-23T10:50:23;100.37;;;30.07;;
12962;SDS011;6546;49.882;8.666;2023-02-23T10:52:53;75.07;;;27.40;;
12962;SDS011;6546;49.882;8.666;2023-02-23T10:55:26;34.43;;;20.07;;
12962;SDS011;6546;49.882;8.666;2023-02-23T10:58:07;30.83;;;20.90;;
12962;SDS011;6546;49.882;8.666;2023-02-23T11:00:46;31.40;;;20.70;;
12962;SDS011;6546;49.882;8.666;2023-02-23T11:03:20;25.80;;;19.50;;
12962;SDS011;6546;49.882;8.666;2023-02-23T11:05:52;26.57;;;19.83;;
12962;SDS011;6546;49.882;8.666;2023-02-23T11:08:21;24.67;;;18.77;;
12962;SDS011;6546;49.882;8.666;2023-02-23T11:13:50;22.17;;;18.33;;
12962;SDS011;6546;49.882;8.666;2023-02-23T11:16:19;23.43;;;17.90;;
12962;SDS011;6546;49.882;8.666;2023-02-23T11:18:49;20.77;;;16.77;;
12962;SDS011;6546;49.882;8.666;2023-02-23T11:21:20;22.13;;;16.70;;
12962;SDS011;6546;49.882;8.666;2023-02-23T11:23:50;27.13;;;18.83;;
12962;SDS011;6546;49.882;8.666;2023-02-23T11:26:27;36.13;;;22.87;;
12962;SDS011;6546;49.882;8.666;2023-02-23T11:29:00;16.50;;;12.77;;
12962;SDS011;6546;49.882;8.666;2023-02-23T11:31:37;17.03;;;10.67;;
12962;SDS011;6546;49.882;8.666;2023-02-23T11:36:57;16.77;;;11.90;;
12962;SDS011;6546;49.882;8.666;2023-02-23T11:39:27;20.93;;;12.40;;
12962;SDS011;6546;49.882;8.666;2023-02-23T11:42:05;18.67;;;12.73;;
12962;SDS011;6546;49.882;8.666;2023-02-23T11:44:41;16.50;;;12.57;;
12962;SDS011;6546;49.882;8.666;2023-02-23T11:47:17;15.50;;;12.43;;
12962;SDS011;6546;49.882;8.666;2023-02-23T11:49:46;16.03;;;11.90;;
12962;SDS011;6546;49.882;8.666;2023-02-23T11:52:15;16.00;;;12.30;;
12962;SDS011;6546;49.882;8.666;2023-02-23T11:54:52;14.00;;;11.73;;
12962;SDS011;6546;49.882;8.666;2023-02-23T11:57:22;13.83;;;11.33;;
12962;SDS011;6546;49.882;8.666;2023-02-23T11:59:51;15.43;;;10.80;;
12962;SDS011;6546;49.882;8.666;2023-02-23T12:02:21;14.60;;;11.20;;
12962;SDS011;6546;49.882;8.666;2023-02-23T12:04:50;11.93;;;10.33;;
12962;SDS011;6546;49.882;8.666;2023-02-23T12:07:24;15.57;;;11.80;;
12962;SDS011;6546;49.882;8.666;2023-02-23T12:10:00;13.87;;;11.70;;
12962;SDS011;6546;49.882;8.666;2023-02-23T12:12:33;15.30;;;11.30;;
12962;SDS011;6546;49.882;8.666;2023-02-23T12:15:09;15.00;;;12.57;;
12962;SDS011;6546;49.882;8.666;2023-02-23T12:17:46;15.57;;;11.83;;
12962;SDS011;6546;49.882;8.666;2023-02-23T12:20:20;15.90;;;11.53;;
12962;SDS011;6546;49.882;8.666;2023-02-23T12:22:52;16.00;;;11.20;;
12962;SDS011;6546;49.882;8.666;2023-02-23T12:25:24;17.00;;;12.57;;
12962;SDS011;6546;49.882;8.666;2023-02-23T12:27:56;13.47;;;11.40;;
12962;SDS011;6546;49.882;8.666;2023-02-23T12:30:30;15.33;;;12.87;;
12962;SDS011;6546;49.882;8.666;2023-02-23T12:33:08;16.13;;;12.17;;
12962;SDS011;6546;49.882;8.666;2023-02-23T12:35:41;14.63;;;10.60;;
12962;SDS011;6546;49.882;8.666;2023-02-23T12:38:14;15.23;;;11.43;;
12962;SDS011;6546;49.882;8.666;2023-02-23T12:40:53;12.70;;;9.43;;
12962;SDS011;6546;49.882;8.666;2023-02-23T12:43:27;15.53;;;9.90;;
12962;SDS011;6546;49.882;8.666;2023-02-23T12:46:02;11.13;;;9.90;;
12962;SDS011;6546;49.882;8.666;2023-02-23T12:48:38;12.47;;;9.63;;
12962;SDS011;6546;49.882;8.666;2023-02-23T12:51:16;14.60;;;9.50;;
12962;SDS011;6546;49.882;8.666;2023-02-23T12:53:50;11.17;;;7.37;;
12962;SDS011;6546;49.882;8.666;2023-02-23T12:56:21;10.60;;;7.60;;
12962;SDS011;6546;49.882;8.666;2023-02-23T12:59:13;9.93;;;7.63;;
12962;SDS011;6546;49.882;8.666;2023-02-23T13:01:52;11.57;;;7.00;;
12962;SDS011;6546;49.882;8.666;2023-02-23T13:04:38;10.70;;;6.90;;
12962;SDS011;6546;49.882;8.666;2023-02-23T13:07:21;8.13;;;6.93;;
12962;SDS011;6546;49.882;8.666;2023-02-23T13:10:01;19.63;;;9.37;;
12962;SDS011;6546;49.882;8.666;2023-02-23T13:12:39;11.40;;;7.60;;
12962;SDS011;6546;49.882;8.666;2023-02-23T13:15:17;11.07;;;7.47;;
12962;SDS011;6546;49.882;8.666;2023-02-23T13:17:55;9.70;;;8.47;;
12962;SDS011;6546;49.882;8.666;2023-02-23T13:20:31;12.07;;;7.87;;
12962;SDS011;6546;49.882;8.666;2023-02-23T13:23:07;9.00;;;7.37;;
12962;SDS011;6546;49.882;8.666;2023-02-23T13:25:42;9.70;;;7.80;;
12962;SDS011;6546;49.882;8.666;2023-02-23T13:28:20;9.73;;;7.90;;
12962;SDS011;6546;49.882;8.666;2023-02-23T13:31:00;8.40;;;6.87;;
12962;SDS011;6546;49.882;8.666;2023-02-23T13:33:27;9.80;;;7.43;;
12962;SDS011;6546;49.882;8.666;2023-02-23T13:36:02;10.40;;;7.63;;
12962;SDS011;6546;49.882;8.666;2023-02-23T13:38:33;11.00;;;7.13;;
12962;SDS011;6546;49.882;8.666;2023-02-23T13:41:12;9.10;;;7.27;;
12962;SDS011;6546;49.882;8.666;2023-02-23T13:43:55;7.83;;;6.47;;
12962;SDS011;6546;49.882;8.666;2023-02-23T13:46:29;8.50;;;6.90;;
12962;SDS011;6546;49.882;8.666;2023-02-23T13:49:14;8.80;;;6.97;;
12962;SDS011;6546;49.882;8.666;2023-02-23T13:51:51;8.57;;;6.70;;
12962;SDS011;6546;49.882;8.666;2023-02-23T13:54:23;9.30;;;7.33;;
12962;SDS011;6546;49.882;8.666;2023-02-23T13:56:57;8.40;;;7.47;;
12962;SDS011;6546;49.882;8.666;2023-02-23T13:59:26;8.17;;;7.33;;
12962;SDS011;6546;49.882;8.666;2023-02-23T14:01:54;9.67;;;7.40;;
12962;SDS011;6546;49.882;8.666;2023-02-23T14:04:23;9.57;;;7.70;;
12962;SDS011;6546;49.882;8.666;2023-02-23T14:07:02;9.13;;;7.67;;
12962;SDS011;6546;49.882;8.666;2023-02-23T14:09:42;8.33;;;7.33;;
12962;SDS011;6546;49.882;8.666;2023-02-23T14:12:22;8.37;;;6.90;;
12962;SDS011;6546;49.882;8.666;2023-02-23T14:14:50;7.17;;;6.47;;
12962;SDS011;6546;49.882;8.666;2023-02-23T14:20:35;11.23;;;8.00;;
12962;SDS011;6546;49.882;8.666;2023-02-23T14:23:25;8.10;;;6.60;;
12962;SDS011;6546;49.882;8.666;2023-02-23T14:26:09;9.43;;;6.70;;
12962;SDS011;6546;49.882;8.666;2023-02-23T14:28:40;8.80;;;7.90;;
12962;SDS011;6546;49.882;8.666;2023-02-23T14:31:16;8.17;;;6.47;;
12962;SDS011;6546;49.882;8.666;2023-02-23T14:33:49;8.50;;;7.67;;
12962;SDS011;6546;49.882;8.666;2023-02-23T14:36:37;9.97;;;6.80;;
12962;SDS011;6546;49.882;8.666;2023-02-23T14:39:15;14.20;;;7.40;;
12962;SDS011;6546;49.882;8.666;2023-02-23T14:41:46;8.27;;;6.70;;
12962;SDS011;6546;49.882;8.666;2023-02-23T14:44:16;8.37;;;7.40;;
12962;SDS011;6546;49.882;8.666;2023-02-23T14:46:55;7.17;;;6.47;;
12962;SDS011;6546;49.882;8.666;2023-02-23T14:49:27;7.57;;;6.47;;
12962;SDS011;6546;49.882;8.666;2023-02-23T14:52:00;11.20;;;6.83;;
12962;SDS011;6546;49.882;8.666;2023-02-23T14:54:34;10.03;;;7.23;;
12962;SDS011;6546;49.882;8.666;2023-02-23T14:57:03;8.97;;;7.00;;
12962;SDS011;6546;49.882;8.666;2023-02-23T14:59:35;9.07;;;7.20;;
12962;SDS011;6546;49.882;8.666;2023-02-23T15:02:08;10.60;;;8.73;;
12962;SDS011;6546;49.882;8.666;2023-02-23T15:04:38;18.03;;;13.27;;
12962;SDS011;6546;49.882;8.666;2023-02-23T15:07:08;10.00;;;8.20;;
12962;SDS011;6546;49.882;8.666;2023-02-23T15:09:44;11.60;;;8.83;;
12962;SDS011;6546;49.882;8.666;2023-02-23T15:12:13;8.93;;;7.40;;
12962;SDS011;6546;49.882;8.666;2023-02-23T15:14:45;8.23;;;7.13;;
12962;SDS011;6546;49.882;8.666;2023-02-23T15:17:17;12.43;;;7.37;;
12962;SDS011;6546;49.882;8.666;2023-02-23T15:23:27;12.53;;;8.67;;
12962;SDS011;6546;49.882;8.666;2023-02-23T15:26:12;10.53;;;9.43;;
12962;SDS011;6546;49.882;8.666;2023-02-23T15:28:42;9.20;;;8.10;;
12962;SDS011;6546;49.882;8.666;2023-02-23T15:31:10;11.87;;;8.07;;
12962;SDS011;6546;49.882;8.666;2023-02-23T15:33:37;10.73;;;8.50;;